Data for 12/19/2017

Time Sea-Level Adjusted Pressure Absolute Pressure Temperature Relative Humidity Dew Point   
(mb) (inHg) (mb) (inHg) (C) (F) (%) (C) (F)
00:05 1016 30 845 24.95 5.2 41.4 49 -4.6 23.7
00:10 1016 30 845 24.95 5.3 41.6 48 -4.9 23.2
00:15 1016 30 845 24.95 5.4 41.7 48 -4.8 23.3
00:20 1016 30 845 24.95 5.3 41.6 49 -4.6 23.8
00:25 1016 30 845 24.95 5.2 41.4 49 -4.7 23.6
00:30 1016 30 845 24.95 5.2 41.3 50 -4.5 23.9
00:35 1016 30 845 24.95 5.1 41.2 50 -4.4 24
00:40 1016 30 845 24.95 5.1 41.1 51 -4.3 24.2
00:45 1016 30 845 24.95 4.9 40.9 51 -4.2 24.4
00:50 1016 30 845 24.95 4.8 40.7 51 -4.4 24
00:55 1016 30 845 24.95 4.8 40.6 52 -4.4 24.1
01:00 1016 30 845 24.95 4.6 40.3 53 -4.1 24.6
01:05 1016 30 845 24.95 4.4 40 54 -4.2 24.5
01:10 1016 30 845 24.95 4.4 39.9 55 -4 24.8
01:15 1016 30 845 24.95 4.3 39.7 54 -4.3 24.3
01:20 1016 30 845 24.95 4.4 39.9 54 -4.1 24.6
01:25 1016 30 845 24.95 4.3 39.7 55 -4 24.8
01:30 1016 30 845 24.95 4.3 39.7 53 -4.4 24.1
01:35 1016 30 845 24.95 4.5 40 53 -4.4 24.1
01:40 1016 30 845 24.95 4.5 40.1 54 -4 24.7
01:45 1016 30 845 24.95 4.4 39.9 54 -4.1 24.6
01:50 1016 30 845 24.95 4.3 39.8 54 -4.2 24.4
01:55 1016 30 845 24.95 4.3 39.7 56 -3.8 25.1
02:00 1016 30 845 24.95 4 39.2 57 -3.8 25.1
02:05 1016 30 845 24.95 3.8 38.8 56 -4.1 24.6
02:10 1016 30 845 24.95 3.9 39 57 -4 24.9
02:15 1016 30 845 24.95 3.8 38.9 56 -4.1 24.6
02:20 1016 30 845 24.95 3.9 39 56 -4 24.8
02:25 1016 30 845 24.95 3.9 39 57 -3.8 25.1
02:30 1016 30 845 24.95 3.9 39 56 -4 24.8
02:35 1016 30 845 24.95 4.1 39.4 55 -4.2 24.4
02:40 1016 30 845 24.95 4.4 39.8 54 -4.3 24.3
02:45 1016 30 845 24.95 4.5 40.1 52 -4.4 24.1
02:50 1016 30 845 24.95 4.6 40.3 53 -4.2 24.5
02:55 1016 30 845 24.95 4.6 40.2 54 -3.9 25
03:00 1015 29.97 845 24.95 4.4 40 55 -3.8 25.2
03:05 1016 30 845 24.95 4.4 40 55 -3.9 24.9
03:10 1015 29.97 845 24.95 4.6 40.3 53 -4.3 24.3
03:15 1015 29.97 845 24.95 4.9 40.8 51 -4.4 24
03:20 1015 29.97 845 24.95 5.1 41.2 51 -4.3 24.3
03:25 1015 29.97 845 24.95 5.1 41.2 51 -4.2 24.4
03:30 1015 29.97 845 24.95 5.4 41.7 49 -4.6 23.7
03:35 1015 29.97 845 24.95 5.5 41.9 49 -4.4 24
03:40 1015 29.97 844 24.92 5.4 41.8 50 -4.2 24.4
03:45 1015 29.97 844 24.92 5.4 41.7 49 -4.6 23.8
03:50 1015 29.97 844 24.92 5.5 41.8 48 -4.7 23.5
03:55 1015 29.97 844 24.92 5.4 41.7 49 -4.5 23.9
04:00 1015 29.97 844 24.92 5.4 41.8 48 -4.6 23.6
04:05 1015 29.97 844 24.92 5.5 41.9 47 -4.8 23.4
04:10 1015 29.97 844 24.92 5.6 42.2 46 -5.1 22.8
04:15 1015 29.97 844 24.92 5.7 42.3 47 -4.7 23.5
04:20 1015 29.97 844 24.92 5.6 42.1 46 -5.1 22.9
04:25 1015 29.97 844 24.92 5.8 42.4 46 -5 22.9
04:30 1015 29.97 844 24.92 5.8 42.4 46 -4.9 23.1
04:35 1015 29.97 844 24.92 5.8 42.5 45 -5.3 22.5
04:40 1015 29.97 844 24.92 6 42.8 45 -5.2 22.7
04:45 1015 29.97 844 24.92 5.9 42.6 46 -4.8 23.3
04:50 1015 29.97 844 24.92 5.7 42.3 45 -5.2 22.7
04:55 1015 29.97 844 24.92 5.8 42.5 45 -5.2 22.6
05:00 1015 29.97 844 24.92 5.8 42.5 46 -5 23
05:05 1015 29.97 844 24.92 5.7 42.3 47 -4.7 23.5
05:10 1015 29.97 844 24.92 5.7 42.2 46 -5.1 22.8
05:15 1015 29.97 844 24.92 5.7 42.3 46 -5 23
05:20 1015 29.97 844 24.92 5.7 42.2 46 -5 23.1
05:25 1014 29.94 844 24.92 5.7 42.2 46 -5.1 22.8
05:30 1014 29.94 844 24.92 5.6 42.1 47 -4.8 23.4
05:35 1014 29.94 844 24.92 5.4 41.7 47 -5 22.9
05:40 1014 29.94 844 24.92 5.5 42 46 -5 22.9
05:45 1014 29.94 844 24.92 5.7 42.2 46 -5 22.9
05:50 1015 29.97 844 24.92 5.7 42.2 46 -5 22.9
05:55 1015 29.97 844 24.92 5.6 42.1 48 -4.6 23.7
06:00 1015 29.97 844 24.92 5.4 41.7 49 -4.3 24.2
06:05 1015 29.97 844 24.92 5.1 41.3 52 -4 24.8
06:10 1015 29.97 844 24.92 4.8 40.7 53 -4.1 24.7
06:15 1015 29.97 844 24.92 4.8 40.6 51 -4.4 24
06:20 1015 29.97 844 24.92 4.8 40.7 50 -4.6 23.7
06:25 1015 29.97 844 24.92 5 41 50 -4.6 23.8
06:30 1014 29.94 844 24.92 5 41 50 -4.4 24.1
06:35 1014 29.94 844 24.92 5.1 41.2 49 -4.8 23.4
06:40 1014 29.94 844 24.92 5.3 41.5 49 -4.5 23.9
06:45 1014 29.94 843 24.89 5.2 41.4 50 -4.4 24.1
06:50 1014 29.94 843 24.89 5.1 41.3 50 -4.3 24.2
06:55 1014 29.94 844 24.92 5.1 41.1 51 -4.1 24.6
07:00 1014 29.94 843 24.89 5.1 41.1 51 -4.2 24.5
07:05 1014 29.94 843 24.89 5 41 50 -4.5 24
07:10 1014 29.94 843 24.89 5 41.1 52 -3.9 24.9
07:15 1014 29.94 843 24.89 4.9 40.9 52 -4.1 24.5
07:20 1014 29.94 843 24.89 4.7 40.5 53 -4.1 24.6
07:25 1014 29.94 843 24.89 4.8 40.6 50 -4.7 23.5
07:30 1014 29.94 843 24.89 5.2 41.3 47 -5.1 22.8
07:35 1014 29.94 843 24.89 5.6 42 45 -5.5 22.1
07:40 1014 29.94 843 24.89 5.9 42.5 44 -5.5 22.1
07:45 1014 29.94 843 24.89 5.9 42.7 44 -5.4 22.3
07:50 1014 29.94 843 24.89 6 42.8 43 -5.6 22
07:55 1014 29.94 843 24.89 6 42.8 44 -5.4 22.3
08:00 1014 29.94 843 24.89 5.8 42.5 45 -5.1 22.8
08:05 1014 29.94 843 24.89 5.7 42.2 44 -5.6 21.9
08:10 1014 29.94 843 24.89 5.9 42.6 44 -5.6 22
08:15 1014 29.94 843 24.89 5.9 42.6 44 -5.5 22.1
08:20 1014 29.94 843 24.89 5.8 42.5 43 -5.7 21.8
08:25 1014 29.94 843 24.89 5.8 42.5 44 -5.3 22.4
08:30 1014 29.94 843 24.89 5.8 42.5 44 -5.6 21.9
08:35 1014 29.94 843 24.89 5.9 42.5 44 -5.5 22.1
08:40 1014 29.94 843 24.89 5.8 42.4 45 -5.2 22.6
08:45 1014 29.94 843 24.89 5.9 42.6 43 -5.8 21.6
08:50 1014 29.94 843 24.89 6 42.7 43 -5.5 22
08:55 1014 29.94 843 24.89 5.9 42.6 45 -5.3 22.5
09:00 1014 29.94 843 24.89 5.7 42.3 45 -5.4 22.3
09:05 1014 29.94 843 24.89 5.8 42.4 43 -5.8 21.6
09:10 1014 29.94 843 24.89 6 42.7 42 -6 21.3
09:15 1014 29.94 843 24.89 6 42.8 42 -5.9 21.5
09:20 1014 29.94 843 24.89 6 42.8 43 -5.8 21.6
09:25 1014 29.94 843 24.89 5.9 42.6 43 -5.6 21.9
09:30 1014 29.94 843 24.89 6.1 42.9 41 -6.1 21.1
09:35 1014 29.94 843 24.89 6.1 42.9 42 -5.9 21.4
09:40 1014 29.94 843 24.89 5.9 42.7 44 -5.5 22.1
09:45 1014 29.94 843 24.89 5.8 42.5 44 -5.5 22.2
09:50 1014 29.94 843 24.89 5.9 42.6 44 -5.5 22
09:55 1014 29.94 843 24.89 5.8 42.4 46 -5 23
10:00 1013 29.91 843 24.89 5.5 41.9 45 -5.4 22.2
10:05 1014 29.94 843 24.89 5.7 42.2 45 -5.4 22.2
10:10 1014 29.94 843 24.89 5.7 42.3 46 -5.2 22.7
10:15 1014 29.94 843 24.89 5.5 41.9 47 -5 22.9
10:20 1014 29.94 843 24.89 5.4 41.8 45 -5.6 21.9
10:25 1014 29.94 843 24.89 5.6 42.1 44 -5.8 21.6
10:30 1014 29.94 843 24.89 5.7 42.2 44 -5.7 21.7
10:35 1014 29.94 843 24.89 5.8 42.4 42 -6.1 21
10:40 1013 29.91 843 24.89 5.9 42.6 42 -5.9 21.3
10:45 1013 29.91 843 24.89 5.9 42.6 43 -5.7 21.8
10:50 1013 29.91 843 24.89 5.9 42.6 43 -5.8 21.6
10:55 1013 29.91 843 24.89 5.9 42.7 43 -5.7 21.8
11:00 1013 29.91 842 24.86 6 42.8 40 -6.5 20.4
11:05 1013 29.91 842 24.86 6.2 43.1 43 -5.6 21.9
11:10 1013 29.91 842 24.86 6.1 43.1 43 -5.5 22.1
11:15 1013 29.91 842 24.86 6.2 43.1 43 -5.5 22
11:20 1013 29.91 842 24.86 6.2 43.2 43 -5.5 22.1
11:25 1013 29.91 842 24.86 6.2 43.2 43 -5.6 22
11:30 1013 29.91 842 24.86 6.1 42.9 44 -5.1 22.7
11:35 1013 29.91 842 24.86 5.8 42.5 47 -4.6 23.8
11:40 1012 29.88 842 24.86 5.8 42.4 46 -4.8 23.3
11:45 1012 29.88 842 24.86 5.7 42.2 47 -4.8 23.4
11:50 1012 29.88 841 24.83 5.7 42.2 47 -4.7 23.6
11:55 1012 29.88 841 24.83 5.7 42.2 44 -5.8 21.6
12:00 1012 29.88 841 24.83 6 42.8 43 -5.5 22
12:05 1012 29.88 841 24.83 6 42.8 43 -5.5 22
12:10 1012 29.88 841 24.83 6.1 43 42 -5.9 21.3
12:15 1012 29.88 841 24.83 6.3 43.3 42 -5.6 21.9
12:20 1012 29.88 841 24.83 6.2 43.1 43 -5.4 22.3
12:25 1012 29.88 841 24.83 6.1 43 42 -5.8 21.6
12:30 1012 29.88 841 24.83 6.1 42.9 43 -5.7 21.7
12:35 1011 29.85 841 24.83 6.1 43 44 -5.3 22.4
12:40 1011 29.85 841 24.83 6 42.9 43 -5.5 22.1
12:45 1011 29.85 841 24.83 6 42.7 44 -5.4 22.4
12:50 1011 29.85 841 24.83 6 42.9 44 -5.2 22.7
12:55 1011 29.85 840 24.81 6 42.8 44 -5.3 22.4
13:00 1011 29.85 840 24.81 6 42.9 43 -5.5 22.2
13:05 1011 29.85 840 24.81 6 42.8 44 -5.4 22.3
13:10 1011 29.85 840 24.81 6 42.7 45 -5.2 22.7
13:15 1011 29.85 840 24.81 5.9 42.7 45 -5.1 22.8
13:20 1011 29.85 840 24.81 5.9 42.6 46 -4.9 23.2
13:25 1011 29.85 840 24.81 5.9 42.6 46 -5 23
13:30 1011 29.85 840 24.81 6 42.7 46 -4.7 23.5
13:35 1011 29.85 840 24.81 6 42.8 46 -4.7 23.5
13:40 1011 29.85 840 24.81 5.8 42.5 46 -4.8 23.4
13:45 1011 29.85 840 24.81 5.7 42.3 46 -5 23
13:50 1011 29.85 840 24.81 5.7 42.3 47 -4.8 23.4
13:55 1011 29.85 840 24.81 5.7 42.2 46 -4.9 23.2
14:00 1011 29.85 840 24.81 5.6 42.1 47 -4.9 23.2
14:05 1011 29.85 840 24.81 5.6 42.1 47 -4.8 23.4
14:10 1011 29.85 840 24.81 5.7 42.3 46 -4.9 23.2
14:15 1011 29.85 840 24.81 5.8 42.5 47 -4.7 23.5
14:20 1011 29.85 840 24.81 5.8 42.5 46 -4.7 23.5
14:25 1011 29.85 840 24.81 5.7 42.3 48 -4.5 24
14:30 1011 29.85 840 24.81 5.6 42.2 48 -4.4 24.1
14:35 1011 29.85 840 24.81 5.7 42.3 48 -4.5 23.9
14:40 1011 29.85 840 24.81 5.8 42.5 49 -4.2 24.5
14:45 1011 29.85 840 24.81 5.7 42.2 49 -4.1 24.6
14:50 1011 29.85 840 24.81 5.6 42.1 49 -4.2 24.4
14:55 1011 29.85 840 24.81 5.6 42.1 50 -4.1 24.7
15:00 1011 29.85 840 24.81 5.6 42.1 50 -4 24.8
15:05 1011 29.85 840 24.81 5.6 42 50 -4.1 24.6
15:10 1011 29.85 840 24.81 5.6 42 50 -4 24.8
15:15 1011 29.85 840 24.81 5.5 42 51 -3.8 25.2
15:20 1011 29.85 840 24.81 5.4 41.7 51 -3.9 25.1
15:25 1011 29.85 840 24.81 5.3 41.5 52 -3.7 25.3
15:30 1011 29.85 840 24.81 5.2 41.4 52 -3.9 25.1
15:35 1011 29.85 840 24.81 5.2 41.4 52 -3.7 25.3
15:40 1011 29.85 840 24.81 5.2 41.4 52 -3.9 24.9
15:45 1011 29.85 840 24.81 5.2 41.4 51 -4.1 24.6
15:50 1011 29.85 840 24.81 5.3 41.5 53 -3.6 25.5
15:55 1011 29.85 840 24.81 5.2 41.3 52 -3.7 25.3
16:00 1011 29.85 840 24.81 5.2 41.4 51 -4 24.9
16:05 1011 29.85 840 24.81 5.4 41.6 48 -4.7 23.5
16:10 1011 29.85 840 24.81 5.6 42.1 48 -4.6 23.8
16:15 1011 29.85 840 24.81 5.7 42.3 47 -4.7 23.5
16:20 1010 29.83 840 24.81 5.8 42.5 48 -4.4 24
16:25 1010 29.83 840 24.81 5.8 42.4 47 -4.6 23.7
16:30 1010 29.83 839 24.78 5.7 42.3 48 -4.5 23.9
16:35 1010 29.83 839 24.78 5.7 42.2 49 -4.2 24.5
16:40 1010 29.83 839 24.78 5.1 41.3 51 -4.1 24.7
16:45 1010 29.83 839 24.78 4.8 40.6 55 -3.6 25.6
16:50 1010 29.83 839 24.78 4.4 39.8 57 -3.5 25.7
16:55 1010 29.83 839 24.78 4 39.1 59 -3.4 26
17:00 1010 29.83 839 24.78 3.7 38.7 60 -3.5 25.8
17:05 1010 29.83 839 24.78 3.6 38.5 59 -3.6 25.5
17:10 1010 29.83 839 24.78 3.7 38.6 58 -3.8 25.2
17:15 1010 29.83 839 24.78 3.7 38.7 58 -3.8 25.2
17:20 1010 29.83 839 24.78 3.8 38.8 58 -3.8 25.2
17:25 1010 29.83 839 24.78 3.8 38.8 56 -4.2 24.5
17:30 1010 29.83 839 24.78 4.9 40.8 46 -5.9 21.4
17:35 1010 29.83 839 24.78 5.4 41.8 49 -4.4 24
17:40 1010 29.83 839 24.78 5.2 41.3 47 -5.2 22.6
17:45 1010 29.83 839 24.78 5.8 42.4 44 -5.6 21.9
17:50 1010 29.83 839 24.78 5.8 42.5 44 -5.6 22
17:55 1009 29.8 839 24.78 5.9 42.6 44 -5.6 22
18:00 1009 29.8 839 24.78 5.9 42.6 44 -5.4 22.2
18:05 1009 29.8 838 24.75 5.8 42.4 44 -5.6 21.9
18:10 1009 29.8 838 24.75 5.9 42.7 43 -5.8 21.6
18:15 1009 29.8 839 24.78 6 42.7 42 -6 21.2
18:20 1009 29.8 838 24.75 6 42.8 41 -6.2 20.9
18:25 1009 29.8 838 24.75 6 42.7 41 -6.2 20.8
18:30 1009 29.8 838 24.75 5.9 42.6 43 -5.7 21.7
18:35 1009 29.8 838 24.75 5.9 42.7 42 -5.9 21.3
18:40 1009 29.8 838 24.75 6.1 43 41 -6.2 20.8
18:45 1009 29.8 838 24.75 6.1 42.9 42 -5.8 21.5
18:50 1009 29.8 838 24.75 6 42.8 41 -6.3 20.6
18:55 1009 29.8 838 24.75 6 42.9 39 -6.8 19.7
19:00 1009 29.8 838 24.75 6.1 43 39 -6.7 20
19:05 1009 29.8 838 24.75 6.1 42.9 40 -6.4 20.5
19:10 1009 29.8 838 24.75 6 42.8 41 -6.2 20.8
19:15 1009 29.8 838 24.75 6 42.7 41 -6.2 20.9
19:20 1008 29.77 838 24.75 5.8 42.4 42 -6 21.2
19:25 1008 29.77 838 24.75 5.7 42.2 43 -6 21.1
19:30 1008 29.77 838 24.75 5.7 42.2 42 -6.2 20.9
19:35 1008 29.77 838 24.75 5.7 42.2 42 -6.2 20.8
19:40 1008 29.77 838 24.75 5.8 42.4 44 -5.5 22
19:45 1008 29.77 838 24.75 5.3 41.5 44 -6 21.3
19:50 1008 29.77 837 24.72 5.3 41.6 44 -6.1 21.1
19:55 1008 29.77 838 24.75 5.4 41.7 46 -5.4 22.3
20:00 1008 29.77 838 24.75 5 41 48 -5.2 22.7
20:05 1008 29.77 838 24.75 4.7 40.4 48 -5.3 22.4
20:10 1009 29.8 838 24.75 4.5 40.2 51 -4.7 23.6
20:15 1009 29.8 838 24.75 4.3 39.7 52 -4.6 23.7
20:20 1009 29.8 838 24.75 4.1 39.4 51 -5 23
20:25 1009 29.8 838 24.75 4.1 39.4 53 -4.6 23.8
20:30 1009 29.8 838 24.75 4.2 39.5 52 -4.7 23.5
20:35 1008 29.77 838 24.75 4.4 39.9 44 -6.9 19.5
20:40 1008 29.77 838 24.75 5.6 42 44 -5.8 21.6
20:45 1008 29.77 838 24.75 5.5 41.9 43 -5.9 21.3
20:50 1008 29.77 837 24.72 5.2 41.4 46 -5.6 22
20:55 1008 29.77 837 24.72 5.3 41.5 44 -6.1 20.9
21:00 1008 29.77 837 24.72 5.7 42.3 42 -6.3 20.7
21:05 1008 29.77 837 24.72 6.1 42.9 42 -5.8 21.5
21:10 1008 29.77 837 24.72 6 42.8 44 -5.4 22.2
21:15 1008 29.77 837 24.72 5.9 42.6 43 -5.7 21.8
21:20 1008 29.77 837 24.72 5.7 42.3 43 -5.8 21.5
21:25 1008 29.77 837 24.72 6.1 42.9 39 -7 19.5
21:30 1008 29.77 837 24.72 6.4 43.5 42 -5.7 21.7
21:35 1008 29.77 837 24.72 6.1 43 42 -5.9 21.4
21:40 1008 29.77 837 24.72 6 42.7 43 -5.6 21.9
21:45 1008 29.77 837 24.72 5.8 42.5 42 -6.1 21
21:50 1008 29.77 837 24.72 6.1 43 37 -7.6 18.2
21:55 1008 29.77 837 24.72 6.3 43.3 37 -7.2 19
22:00 1008 29.77 837 24.72 6.3 43.3 36 -7.6 18.2
22:05 1008 29.77 837 24.72 6.2 43.1 37 -7.5 18.5
22:10 1008 29.77 837 24.72 6.3 43.3 35 -8.1 17.4
22:15 1007 29.74 837 24.72 6.3 43.3 32 -9.1 15.7
22:20 1007 29.74 837 24.72 6.3 43.3 34 -8.4 16.9
22:25 1007 29.74 837 24.72 6.4 43.5 33 -8.9 15.9
22:30 1007 29.74 837 24.72 6.6 43.9 34 -8.3 17.1
22:35 1007 29.74 837 24.72 6.5 43.7 35 -7.8 17.9
22:40 1007 29.74 837 24.72 6.4 43.6 34 -8.3 17.1
22:45 1007 29.74 837 24.72 6.5 43.7 34 -8.1 17.4
22:50 1007 29.74 837 24.72 6.4 43.5 35 -7.8 17.9
22:55 1007 29.74 837 24.72 6.3 43.4 38 -7.1 19.2
23:00 1007 29.74 836 24.69 6.3 43.3 37 -7.3 18.9
23:05 1007 29.74 836 24.69 6.3 43.4 36 -7.6 18.3
23:10 1007 29.74 836 24.69 6.4 43.5 36 -7.5 18.4
23:15 1007 29.74 836 24.69 6.4 43.5 37 -7.2 19
23:20 1007 29.74 836 24.69 6.5 43.7 38 -6.9 19.6
23:25 1007 29.74 836 24.69 6.3 43.3 37 -7.2 19
23:30 1007 29.74 836 24.69 6.2 43.2 36 -7.6 18.4
23:35 1007 29.74 836 24.69 6.4 43.6 34 -8.4 16.9
23:40 1007 29.74 836 24.69 6.6 43.9 37 -7.2 19
23:45 1007 29.74 836 24.69 6.5 43.6 37 -7.3 18.8
23:50 1007 29.74 836 24.69 6.4 43.6 38 -6.9 19.6
23:55 1007 29.74 836 24.69 6.3 43.3 37 -7.5 18.5
24:00 1007 29.74 836 24.69 6.4 43.6 36 -7.6 18.4